Miccosukee, Florida
Current Conditions -  °F | °C
As of 11:53 PM on Friday 19 Dec 2014 (Local Time) from KTLH Reporting Station
Overcast Overcast  
Wind Chill: 53°   Ceiling: 7500
Heat Index: 53°   Visibility: 10mi
Dew Point: 49°   Wind: 3mph
Humidity: 86%   Direction: 20°NNE
Pressure: 30.13"   Gusts: NA
Location:  30.59°N, 84.04°W
Report Text: KTLH 200353Z 02003KT 10SM BKN075 OVC095 12/09 A3013 RMK AO2 RAB25E49 SLP203 LAST AUGMENTED OBS P0000 T01170094 $
Loading
Personal Weather Stations






























Interactive Weather Map New forecast layout! Learn more

10-Day Weather Forecast

Advertisements
Track Severe Weather on mobile